createdAt,value
2019-02-18T00:01:22.319Z,98681.22
2019-02-18T00:04:11.484Z,98684.98
2019-02-18T00:06:41.658Z,98678.00
2019-02-18T00:09:31.203Z,98680.94
2019-02-18T00:12:20.657Z,98668.16
2019-02-18T00:15:10.353Z,98673.41
2019-02-18T00:17:59.819Z,98676.91
2019-02-18T00:20:49.279Z,98669.95
2019-02-18T00:23:38.793Z,98670.53
2019-02-18T00:26:51.459Z,98677.00
2019-02-18T00:29:40.752Z,98668.16
2019-02-18T00:32:30.233Z,98670.46
2019-02-18T00:35:00.415Z,98665.85
2019-02-18T00:37:30.621Z,98671.53
2019-02-18T00:40:03.089Z,98677.84
2019-02-18T00:42:52.320Z,98672.73
2019-02-18T00:48:56.189Z,98680.70
2019-02-18T00:51:26.375Z,98682.45
2019-02-18T00:54:15.843Z,98674.19
2019-02-18T00:57:05.516Z,98675.98
2019-02-18T00:59:55.160Z,98676.98
2019-02-18T01:02:47.653Z,98534.39
2019-02-18T01:05:55.970Z,98671.72
2019-02-18T01:08:37.452Z,98674.55
2019-02-18T01:11:07.627Z,98677.64
2019-02-18T01:13:56.844Z,98680.05
2019-02-18T01:16:26.973Z,98676.17
2019-02-18T01:19:16.478Z,98675.86
2019-02-18T01:22:05.838Z,98678.94
2019-02-18T01:24:55.385Z,98675.63
2019-02-18T01:27:44.576Z,98673.52
2019-02-18T01:30:34.054Z,98678.38
2019-02-18T01:33:04.201Z,98682.02
2019-02-18T01:35:53.667Z,98682.99
2019-02-18T01:38:43.232Z,98681.77
2019-02-18T01:41:32.502Z,98680.91
2019-02-18T01:44:22.345Z,98677.52
2019-02-18T01:47:11.552Z,98678.80
2019-02-18T01:50:01.031Z,98673.81
2019-02-18T01:52:50.455Z,98674.63
2019-02-18T01:55:39.732Z,98668.61
2019-02-18T01:58:29.049Z,98670.98
2019-02-18T02:01:18.535Z,98664.48
2019-02-18T02:04:08.008Z,98663.67
2019-02-18T02:06:57.494Z,98659.11
2019-02-18T02:09:42.415Z,98655.98
2019-02-18T02:12:24.048Z,98654.27
2019-02-18T02:15:05.825Z,98649.58
2019-02-18T02:17:46.099Z,98653.63
2019-02-18T02:20:35.504Z,98655.46
2019-02-18T02:23:26.021Z,98652.87
2019-02-18T02:26:15.235Z,98649.94
2019-02-18T02:29:04.712Z,98649.88
2019-02-18T02:31:54.139Z,98655.77
2019-02-18T02:34:43.638Z,98658.04
2019-02-18T02:37:33.139Z,98654.97
2019-02-18T02:40:22.341Z,98647.77
2019-02-18T02:43:11.829Z,98658.15
2019-02-18T02:46:01.058Z,98645.63
2019-02-18T02:48:31.305Z,98647.67
2019-02-18T02:51:20.815Z,98648.95
2019-02-18T02:54:10.071Z,98644.61
2019-02-18T02:56:59.521Z,98644.28
2019-02-18T03:00:07.867Z,98640.14
2019-02-18T03:02:57.289Z,98640.47
2019-02-18T03:05:47.307Z,98640.96
2019-02-18T03:08:39.203Z,98633.34
2019-02-18T03:11:28.648Z,98632.79
2019-02-18T03:14:17.954Z,98631.77
2019-02-18T03:17:07.296Z,98627.89
2019-02-18T03:19:56.834Z,98621.81
2019-02-18T03:22:46.446Z,98621.86
2019-02-18T03:25:35.640Z,98628.31
2019-02-18T03:28:38.531Z,98626.98
2019-02-18T03:31:28.449Z,98626.11
2019-02-18T03:34:36.588Z,98471.08
2019-02-18T03:37:25.880Z,98621.60
2019-02-18T03:40:17.997Z,98625.16
2019-02-18T03:43:07.468Z,98625.95
2019-02-18T03:45:56.619Z,98623.75
2019-02-18T03:48:45.834Z,98628.92
2019-02-18T03:51:16.047Z,98627.50
2019-02-18T03:54:05.479Z,98631.43
2019-02-18T03:56:54.818Z,98628.16
2019-02-18T03:59:44.317Z,98487.97
2019-02-18T04:02:33.614Z,98627.52
2019-02-18T04:05:04.417Z,98627.53
2019-02-18T04:07:54.415Z,98622.42
2019-02-18T04:10:35.912Z,98626.73
2019-02-18T04:13:16.091Z,98629.39
2019-02-18T04:16:05.161Z,98624.84
2019-02-18T04:18:54.538Z,98626.94
2019-02-18T04:21:43.694Z,98635.42
2019-02-18T04:24:32.978Z,98631.80
2019-02-18T04:27:22.432Z,98632.45
2019-02-18T04:30:13.684Z,98638.17
2019-02-18T04:33:03.126Z,98629.97
2019-02-18T04:35:52.518Z,98633.45
2019-02-18T04:38:42.024Z,98627.00
2019-02-18T04:41:31.656Z,98630.44
2019-02-18T04:44:21.732Z,98629.19
2019-02-18T04:47:11.189Z,98633.53
2019-02-18T04:50:00.653Z,98627.00
2019-02-18T04:52:50.093Z,98633.88
2019-02-18T04:55:39.562Z,98634.34
2019-02-18T04:58:29.096Z,98637.64
2019-02-18T05:00:59.272Z,98634.34
2019-02-18T05:03:40.881Z,98632.25
2019-02-18T05:06:22.399Z,98643.89
2019-02-18T05:09:05.724Z,98639.13
2019-02-18T05:11:47.161Z,98636.97
2019-02-18T05:14:29.064Z,98629.30
2019-02-18T05:16:59.226Z,98636.55
2019-02-18T05:19:48.700Z,98633.11
2019-02-18T05:22:37.898Z,98633.64
2019-02-18T05:25:27.452Z,98634.50
2019-02-18T05:28:16.987Z,98630.09
2019-02-18T05:30:47.165Z,98625.33
2019-02-18T05:33:19.712Z,98623.70
2019-02-18T05:35:49.864Z,98614.79
2019-02-18T05:38:39.387Z,98618.22
2019-02-18T05:41:31.105Z,98615.27
2019-02-18T05:44:00.480Z,98612.25
2019-02-18T05:46:52.984Z,98616.52
2019-02-18T05:49:23.258Z,98613.89
2019-02-18T05:51:53.431Z,98616.98
2019-02-18T05:54:24.290Z,98613.98
2019-02-18T05:56:54.685Z,98613.94
2019-02-18T05:59:24.812Z,98612.25
2019-02-18T06:02:14.648Z,98608.39
2019-02-18T06:04:56.929Z,98607.63
2019-02-18T06:07:38.313Z,98537.09
2019-02-18T06:10:19.898Z,98605.05
2019-02-18T06:13:00.300Z,98603.67
2019-02-18T06:15:50.755Z,98603.19
2019-02-18T06:18:20.874Z,98604.48
2019-02-18T06:20:51.057Z,98602.91
2019-02-18T06:23:21.222Z,98607.10
2019-02-18T06:26:10.525Z,98614.78
2019-02-18T06:28:59.863Z,98619.89
2019-02-18T06:31:32.030Z,98613.59
2019-02-18T06:34:20.952Z,98613.59
2019-02-18T06:37:10.124Z,98620.89
2019-02-18T06:39:59.689Z,98625.05
2019-02-18T06:42:29.855Z,98630.20
2019-02-18T06:48:01.622Z,98632.67
2019-02-18T06:50:50.837Z,98632.21
2019-02-18T06:53:21.066Z,98635.13
2019-02-18T06:55:51.485Z,98634.88
2019-02-18T06:58:40.580Z,98638.78
2019-02-18T07:01:41.205Z,98637.88
2019-02-18T07:04:25.454Z,98637.88
2019-02-18T07:07:01.782Z,98636.06
2019-02-18T07:09:51.703Z,98646.57
2019-02-18T07:12:41.051Z,98640.03
2019-02-18T07:15:44.251Z,98639.39
2019-02-18T07:18:25.737Z,98640.90
2019-02-18T07:20:59.076Z,98639.19
2019-02-18T07:23:48.347Z,98637.40
2019-02-18T07:26:18.494Z,98633.44
2019-02-18T07:28:49.023Z,98635.10
2019-02-18T07:31:19.144Z,98630.53
2019-02-18T07:33:49.692Z,98631.05
2019-02-18T07:36:39.011Z,98626.43
2019-02-18T07:39:09.260Z,98629.01
2019-02-18T07:41:58.995Z,98623.73
2019-02-18T07:44:48.258Z,98627.44
2019-02-18T07:47:37.733Z,98625.95
2019-02-18T07:50:08.922Z,98629.46
2019-02-18T07:52:58.380Z,98626.51
2019-02-18T07:55:47.589Z,98628.97
2019-02-18T07:58:18.049Z,98623.05
2019-02-18T08:00:48.511Z,98627.73
2019-02-18T08:03:29.787Z,98626.36
2019-02-18T08:06:09.764Z,98620.94
2019-02-18T08:08:40.312Z,98624.47
2019-02-18T08:11:12.737Z,98621.05
2019-02-18T08:13:42.878Z,98619.97
2019-02-18T08:16:13.040Z,98622.06
2019-02-18T08:18:43.531Z,98618.09
2019-02-18T08:21:13.683Z,98620.56
2019-02-18T08:24:02.893Z,98618.45
2019-02-18T08:26:33.028Z,98618.81
2019-02-18T08:29:03.172Z,98615.73
2019-02-18T08:31:33.852Z,98615.71
2019-02-18T08:34:04.082Z,98611.08
2019-02-18T08:36:34.281Z,98610.05
2019-02-18T08:39:05.628Z,98615.84
2019-02-18T08:41:36.371Z,98613.37
2019-02-18T08:44:27.291Z,98614.97
2019-02-18T08:46:57.533Z,98614.56
2019-02-18T08:49:47.095Z,98610.59
2019-02-18T08:52:17.459Z,98613.52
2019-02-18T08:54:56.271Z,98618.27
2019-02-18T08:57:19.646Z,98616.14
2019-02-18T08:59:50.194Z,98620.17
2019-02-18T09:02:39.631Z,98612.80
2019-02-18T09:05:09.843Z,98608.58
2019-02-18T09:08:00.489Z,98611.67
2019-02-18T09:10:33.717Z,98609.81
2019-02-18T09:13:05.110Z,98613.50
2019-02-18T09:16:00.702Z,98602.70
2019-02-18T09:18:49.894Z,98606.02
2019-02-18T09:21:39.388Z,98611.92
2019-02-18T09:24:28.457Z,98606.42
2019-02-18T09:27:17.824Z,98608.59
2019-02-18T09:30:07.294Z,98583.12
2019-02-18T09:32:37.458Z,98604.88
2019-02-18T09:35:07.766Z,98601.75
2019-02-18T09:37:56.947Z,98604.31
2019-02-18T09:40:51.195Z,98606.66
2019-02-18T09:43:37.348Z,98601.12
2019-02-18T09:46:26.877Z,98601.62
2019-02-18T09:49:16.081Z,98607.35
2019-02-18T09:52:05.526Z,98591.48
2019-02-18T09:54:54.753Z,98595.52
2019-02-18T09:57:44.275Z,98594.10
2019-02-18T10:00:14.426Z,98594.62
2019-02-18T10:03:03.606Z,98593.31
2019-02-18T10:05:33.760Z,98591.27
2019-02-18T10:08:03.900Z,98587.00
2019-02-18T10:10:34.087Z,98585.86
2019-02-18T10:13:04.425Z,98583.88
2019-02-18T10:15:53.928Z,98580.54
2019-02-18T10:18:43.443Z,98575.08
2019-02-18T10:21:13.619Z,98575.81
2019-02-18T10:23:44.556Z,98576.02
2019-02-18T10:26:14.720Z,98570.95
2019-02-18T10:28:44.894Z,98568.55
2019-02-18T10:31:15.025Z,98566.71
2019-02-18T10:34:04.472Z,98564.09
2019-02-18T10:36:34.812Z,98564.19
2019-02-18T10:39:06.194Z,98564.64
2019-02-18T10:41:36.365Z,98562.09
2019-02-18T10:44:06.779Z,98549.92
2019-02-18T10:46:55.951Z,98557.54
2019-02-18T10:49:45.393Z,98555.72
2019-02-18T10:52:15.587Z,98551.07
2019-02-18T10:54:46.029Z,98550.66
2019-02-18T10:57:16.333Z,98544.19
2019-02-18T10:59:46.508Z,98538.84
2019-02-18T11:02:36.115Z,98534.67
2019-02-18T11:05:25.638Z,98527.91
2019-02-18T11:08:15.857Z,98391.58
2019-02-18T11:11:05.352Z,98519.59
2019-02-18T11:13:35.521Z,98508.93
2019-02-18T11:16:05.726Z,98514.06
2019-02-18T11:18:35.936Z,98509.59
2019-02-18T11:21:25.134Z,98499.08
2019-02-18T11:23:55.316Z,98495.98
2019-02-18T11:26:44.809Z,98498.24
2019-02-18T11:29:34.058Z,98494.61
2019-02-18T11:32:04.239Z,98487.02
2019-02-18T11:34:34.680Z,98482.41
2019-02-18T11:37:04.923Z,98476.80
2019-02-18T11:39:54.367Z,98475.77
2019-02-18T11:42:43.530Z,98467.63
2019-02-18T11:45:34.874Z,98462.84
2019-02-18T11:48:45.133Z,98464.43
2019-02-18T11:51:34.339Z,98456.17
2019-02-18T11:54:04.537Z,98454.75
2019-02-18T11:56:35.467Z,98451.16
2019-02-18T11:59:24.755Z,98446.08
2019-02-18T12:02:13.960Z,98448.58
2019-02-18T12:04:44.141Z,98444.17
2019-02-18T12:07:14.348Z,98444.72
2019-02-18T12:09:44.976Z,98441.63
2019-02-18T12:12:15.161Z,98439.06
2019-02-18T12:14:46.717Z,98431.59
2019-02-18T12:20:09.465Z,98431.05
2019-02-18T12:22:58.685Z,98426.34
2019-02-18T12:25:48.179Z,98420.30
2019-02-18T12:28:37.445Z,98303.34
2019-02-18T12:31:27.283Z,98400.55
2019-02-18T12:34:16.464Z,98403.54
2019-02-18T12:37:05.706Z,98397.64
2019-02-18T12:39:35.861Z,98394.43
2019-02-18T12:42:06.298Z,98396.04
2019-02-18T12:44:36.459Z,98394.43
2019-02-18T12:47:06.655Z,98394.72
2019-02-18T12:49:36.891Z,98388.92
2019-02-18T12:52:26.046Z,98393.87
2019-02-18T12:55:07.514Z,98389.11
2019-02-18T12:57:37.985Z,98380.39
2019-02-18T13:00:27.249Z,98377.61
2019-02-18T13:03:16.412Z,98375.44
2019-02-18T13:05:46.885Z,98369.59
2019-02-18T13:08:36.326Z,98361.25
2019-02-18T13:11:06.505Z,98360.05
2019-02-18T13:13:55.673Z,98356.77
2019-02-18T13:16:44.870Z,98343.16
2019-02-18T13:19:15.028Z,98348.14
2019-02-18T13:21:45.465Z,98343.31
2019-02-18T13:24:56.098Z,98345.64
2019-02-18T13:27:26.343Z,98340.75
2019-02-18T13:30:17.168Z,98343.22
2019-02-18T13:33:15.448Z,98332.36
2019-02-18T13:36:25.689Z,98337.77
2019-02-18T13:39:15.097Z,98329.85
2019-02-18T13:42:12.906Z,98328.05
2019-02-18T13:44:45.532Z,98331.52
2019-02-18T13:47:35.139Z,98325.45
2019-02-18T13:50:06.200Z,98325.76
2019-02-18T13:52:55.381Z,98321.27
2019-02-18T13:58:25.727Z,98314.61
2019-02-18T14:01:35.567Z,98308.47
2019-02-18T14:04:05.750Z,98310.72
2019-02-18T14:06:36.298Z,98303.84
2019-02-18T14:09:09.515Z,98310.08
2019-02-18T14:11:39.754Z,98304.44
2019-02-18T14:17:26.892Z,98297.06
2019-02-18T14:20:36.664Z,98306.17
2019-02-18T14:23:07.368Z,98296.56
2019-02-18T14:25:37.810Z,98290.59
2019-02-18T14:28:27.042Z,98294.39
2019-02-18T14:30:57.539Z,98293.03
2019-02-18T14:33:46.704Z,98292.25
2019-02-18T14:36:16.898Z,98292.39
2019-02-18T14:38:47.825Z,98282.66
2019-02-18T14:41:37.287Z,98287.54
2019-02-18T14:44:26.529Z,98169.17
2019-02-18T14:46:56.693Z,98275.50
2019-02-18T14:49:45.884Z,98282.88
2019-02-18T14:52:18.070Z,98268.48
2019-02-18T14:54:48.252Z,98276.00
2019-02-18T14:57:19.158Z,98277.20
2019-02-18T15:03:05.141Z,98273.58
2019-02-18T15:05:35.628Z,98274.30
2019-02-18T15:08:05.760Z,98272.28
2019-02-18T15:10:36.065Z,98268.56
2019-02-18T15:13:25.670Z,98262.54
2019-02-18T15:15:55.838Z,98254.11
2019-02-18T15:18:26.148Z,98253.30
2019-02-18T15:21:15.371Z,98252.97
2019-02-18T15:23:45.922Z,98244.86
2019-02-18T15:26:16.305Z,98246.80
2019-02-18T15:28:46.502Z,98248.88
2019-02-18T15:31:36.691Z,98244.77
2019-02-18T15:34:26.639Z,98243.75
2019-02-18T15:36:57.030Z,98241.91
2019-02-18T15:39:46.850Z,98238.20
2019-02-18T15:42:17.150Z,98239.84
2019-02-18T15:44:48.251Z,98238.95
2019-02-18T15:47:37.469Z,98234.84
2019-02-18T15:50:28.055Z,98229.62
2019-02-18T15:53:17.266Z,98232.34
2019-02-18T15:56:06.693Z,98227.80
2019-02-18T15:58:48.227Z,98229.00
2019-02-18T16:01:18.446Z,98221.10
2019-02-18T16:04:07.686Z,98223.04
2019-02-18T16:06:56.887Z,98219.64
2019-02-18T16:09:46.477Z,98217.50
2019-02-18T16:12:16.603Z,98219.45
2019-02-18T16:14:46.723Z,98215.95
2019-02-18T16:17:37.862Z,98212.69
2019-02-18T16:20:28.022Z,98211.20
2019-02-18T16:23:17.576Z,98206.47
2019-02-18T16:26:07.162Z,98214.64
2019-02-18T16:28:56.583Z,98217.06
2019-02-18T16:31:26.882Z,98219.19
2019-02-18T16:37:05.485Z,98211.59
2019-02-18T16:39:54.981Z,98216.92
2019-02-18T16:42:27.903Z,98225.08
2019-02-18T16:45:31.596Z,98218.52
2019-02-18T16:48:08.732Z,98223.16
2019-02-18T16:50:39.022Z,98223.13
2019-02-18T16:53:28.449Z,98228.19
2019-02-18T16:56:17.824Z,98230.80
2019-02-18T16:59:00.627Z,98230.95
2019-02-18T17:01:42.193Z,98229.22
2019-02-18T17:04:12.336Z,98229.02
2019-02-18T17:09:52.358Z,98238.80
2019-02-18T17:12:22.496Z,98235.65
2019-02-18T17:15:11.826Z,98237.48
2019-02-18T17:17:42.381Z,98238.56
2019-02-18T17:20:31.599Z,98234.03
2019-02-18T17:23:21.105Z,98241.13
2019-02-18T17:26:10.389Z,98238.83
2019-02-18T17:28:59.660Z,98229.69
2019-02-18T17:31:49.267Z,98241.00
2019-02-18T17:34:38.679Z,98237.74
2019-02-18T17:37:08.872Z,98238.41
2019-02-18T17:39:42.327Z,98232.22
2019-02-18T17:42:12.501Z,98233.56
2019-02-18T17:44:42.719Z,98233.80
2019-02-18T17:47:13.825Z,98094.38
2019-02-18T17:49:43.942Z,98234.45
2019-02-18T17:52:14.221Z,98233.09
2019-02-18T17:55:03.461Z,98233.70
2019-02-18T17:57:52.670Z,98146.09
2019-02-18T18:03:19.644Z,98239.70
2019-02-18T18:06:08.838Z,98247.96
2019-02-18T18:08:58.264Z,98250.11
2019-02-18T18:11:47.941Z,98246.44
2019-02-18T18:14:18.338Z,98251.48
2019-02-18T18:17:07.606Z,98248.02
2019-02-18T18:19:37.756Z,98251.66
2019-02-18T18:22:19.545Z,98244.08
2019-02-18T18:25:01.274Z,98256.13
2019-02-18T18:27:42.794Z,98254.61
2019-02-18T18:30:24.859Z,98246.83
2019-02-18T18:32:55.281Z,98127.90
2019-02-18T18:35:44.501Z,98249.91
2019-02-18T18:38:33.713Z,98252.63
2019-02-18T18:41:24.045Z,98264.36
2019-02-18T18:44:13.357Z,98255.75
2019-02-18T18:47:02.547Z,98256.66
2019-02-18T18:49:32.803Z,98257.64
2019-02-18T18:52:03.008Z,98258.37
2019-02-18T18:54:52.675Z,98261.59
2019-02-18T18:57:23.485Z,98105.31
2019-02-18T19:00:07.414Z,98256.41
2019-02-18T19:02:38.197Z,98231.44
2019-02-18T19:05:08.647Z,98259.88
2019-02-18T19:07:39.352Z,98261.42
2019-02-18T19:10:09.853Z,98253.78
2019-02-18T19:12:41.214Z,98261.16
2019-02-18T19:15:12.888Z,98267.25
2019-02-18T19:17:43.116Z,98257.20
2019-02-18T19:20:32.604Z,98259.52
2019-02-18T19:23:02.896Z,98257.77
2019-02-18T19:25:34.066Z,98257.97
2019-02-18T19:28:23.283Z,98261.50
2019-02-18T19:30:53.429Z,98259.31
2019-02-18T19:33:42.758Z,98258.95
2019-02-18T19:36:32.515Z,98270.50
2019-02-18T19:42:34.829Z,98268.69
2019-02-18T19:45:14.155Z,98272.61
2019-02-18T19:48:26.246Z,98277.06
2019-02-18T19:56:20.830Z,98276.11
2019-02-18T19:58:51.117Z,98272.78
2019-02-18T20:01:40.588Z,98277.30
2019-02-18T20:04:10.810Z,98275.67
2019-02-18T20:06:41.104Z,98271.67
2019-02-18T20:09:15.792Z,98268.50
2019-02-18T20:12:05.407Z,98266.72
2019-02-18T20:14:35.784Z,98270.20
2019-02-18T20:17:08.378Z,98266.94
2019-02-18T20:19:57.858Z,98270.08
2019-02-18T20:22:47.729Z,98269.63
2019-02-18T20:25:17.999Z,98274.84
2019-02-18T20:27:49.297Z,98276.69
2019-02-18T20:30:19.673Z,98280.97
2019-02-18T20:32:49.816Z,98277.39
2019-02-18T20:35:20.158Z,98285.00
2019-02-18T20:41:00.519Z,98280.36
2019-02-18T20:43:50.144Z,98289.77
2019-02-18T20:46:20.416Z,98281.69
2019-02-18T20:48:50.936Z,98286.87
2019-02-18T20:51:22.532Z,98290.20
2019-02-18T20:54:12.122Z,98286.56
2019-02-18T20:56:42.737Z,98286.29
2019-02-18T20:59:13.022Z,98291.23
2019-02-18T21:01:43.372Z,98285.48
2019-02-18T21:04:13.935Z,98284.59
2019-02-18T21:07:23.951Z,98289.83
2019-02-18T21:10:13.439Z,98284.48
2019-02-18T21:13:03.339Z,98282.68
2019-02-18T21:15:34.319Z,98285.37
2019-02-18T21:18:23.921Z,98285.51
2019-02-18T21:20:54.131Z,98286.31
2019-02-18T21:23:44.631Z,98291.34
2019-02-18T21:26:15.412Z,98289.59
2019-02-18T21:28:45.763Z,98291.18
2019-02-18T21:31:19.763Z,98292.82
2019-02-18T21:34:09.251Z,98293.11
2019-02-18T21:36:39.797Z,98302.77
2019-02-18T21:39:29.308Z,98304.56
2019-02-18T21:42:18.944Z,98301.02
2019-02-18T21:48:54.234Z,98305.60
2019-02-18T21:51:24.401Z,98300.48
2019-02-18T21:54:13.976Z,98306.70
2019-02-18T21:56:44.145Z,98304.48
2019-02-18T21:59:14.359Z,98301.14
2019-02-18T22:01:44.526Z,98305.64
2019-02-18T22:04:34.030Z,98309.11
2019-02-18T22:07:23.323Z,98306.27
2019-02-18T22:09:53.782Z,98309.69
2019-02-18T22:12:24.070Z,98307.63
2019-02-18T22:14:54.539Z,98309.03
2019-02-18T22:17:24.917Z,98307.28
2019-02-18T22:20:22.104Z,98310.48
2019-02-18T22:23:11.299Z,98303.69
2019-02-18T22:26:00.856Z,98304.34
2019-02-18T22:28:50.421Z,98314.85
2019-02-18T22:35:14.044Z,98317.47
2019-02-18T22:38:03.559Z,98309.33
2019-02-18T22:40:33.703Z,98310.22
2019-02-18T22:43:03.852Z,98314.77
2019-02-18T22:45:53.374Z,98315.80
2019-02-18T22:48:23.529Z,98315.58
2019-02-18T22:51:13.026Z,98312.61
2019-02-18T22:53:45.071Z,98318.63
2019-02-18T22:59:24.598Z,98315.80
2019-02-18T23:01:56.069Z,98329.93
2019-02-18T23:04:45.268Z,98328.05
2019-02-18T23:07:15.560Z,98325.18
2019-02-18T23:10:05.244Z,98335.18
2019-02-18T23:12:36.877Z,98335.59
2019-02-18T23:15:07.434Z,98333.67
2019-02-18T23:17:57.018Z,98334.70
2019-02-18T23:20:27.259Z,98341.09
2019-02-18T23:22:57.894Z,98336.06
2019-02-18T23:25:28.049Z,98341.89
2019-02-18T23:28:17.397Z,98347.13
2019-02-18T23:30:48.445Z,98354.00
2019-02-18T23:33:18.614Z,98357.02
2019-02-18T23:36:07.850Z,98347.49
2019-02-18T23:38:57.048Z,98344.09
2019-02-18T23:41:46.704Z,98354.93
2019-02-18T23:44:36.196Z,98355.03
2019-02-18T23:47:25.482Z,98356.02
2019-02-18T23:49:55.603Z,98364.70
2019-02-18T23:52:45.090Z,98353.38
2019-02-18T23:55:34.592Z,98359.05
2019-02-18T23:58:23.818Z,98356.13
